createdAt,value
2022-08-07T04:01:22.420Z,2.40
2022-08-07T04:03:55.023Z,2.60
2022-08-07T04:06:37.402Z,2.50
2022-08-07T04:09:16.184Z,2.50
2022-08-07T04:12:25.795Z,3.00
2022-08-07T04:14:43.572Z,2.50
2022-08-07T04:18:11.187Z,2.70
2022-08-07T04:20:11.208Z,3.10
2022-08-07T04:22:41.336Z,2.80
2022-08-07T04:25:23.652Z,2.50
2022-08-07T04:28:00.687Z,2.50
2022-08-07T04:30:35.775Z,3.00
2022-08-07T04:33:25.802Z,3.40
2022-08-07T04:35:54.479Z,3.30
2022-08-07T04:38:29.077Z,2.90
2022-08-07T04:40:58.154Z,2.70
2022-08-07T04:44:10.578Z,2.70
2022-08-07T04:47:04.116Z,2.40
2022-08-07T04:49:57.789Z,2.20
2022-08-07T04:52:51.325Z,2.60
2022-08-07T04:58:10.697Z,2.20
2022-08-07T04:59:07.755Z,2.70
2022-08-07T05:01:45.199Z,2.40
2022-08-07T05:04:47.233Z,2.80
2022-08-07T05:07:36.803Z,2.30
2022-08-07T05:10:32.872Z,2.00
2022-08-07T05:14:53.823Z,2.70
2022-08-07T05:16:04.405Z,2.10
2022-08-07T05:18:38.813Z,1.60
2022-08-07T05:21:12.610Z,1.40
2022-08-07T05:23:55.787Z,2.30
2022-08-07T05:26:28.126Z,1.50
2022-08-07T05:29:05.020Z,1.80
2022-08-07T05:31:39.579Z,1.70
2022-08-07T05:34:17.197Z,1.70
2022-08-07T05:36:52.726Z,1.70
2022-08-07T05:40:16.532Z,1.70
2022-08-07T05:42:33.613Z,1.60
2022-08-07T05:45:26.157Z,1.80
2022-08-07T05:48:02.466Z,2.00
2022-08-07T05:50:44.574Z,1.90
2022-08-07T05:54:09.541Z,1.70
2022-08-07T05:56:06.755Z,1.70
2022-08-07T05:58:41.975Z,1.90
2022-08-07T06:01:23.539Z,2.20
2022-08-07T06:04:01.035Z,2.30
2022-08-07T06:06:36.104Z,2.20
2022-08-07T06:09:06.708Z,2.70
2022-08-07T06:11:39.798Z,1.90
2022-08-07T06:14:11.546Z,1.50
2022-08-07T06:16:45.777Z,1.40
2022-08-07T06:19:52.318Z,1.50
2022-08-07T06:22:15.470Z,1.60
2022-08-07T06:24:57.892Z,1.60
2022-08-07T06:27:59.834Z,1.70
2022-08-07T06:30:31.783Z,1.40
2022-08-07T06:33:04.819Z,1.90
2022-08-07T06:35:45.261Z,1.90
2022-08-07T06:38:19.323Z,1.20
2022-08-07T06:40:54.253Z,1.40
2022-08-07T06:43:25.002Z,1.70
2022-08-07T06:46:12.181Z,1.60
2022-08-07T06:48:44.701Z,1.40
2022-08-07T06:51:31.295Z,2.20
2022-08-07T06:55:30.063Z,1.70
2022-08-07T06:56:57.231Z,1.70
2022-08-07T07:00:14.657Z,1.50
2022-08-07T07:02:53.608Z,1.10
2022-08-07T07:06:03.948Z,1.40
2022-08-07T07:08:07.175Z,2.10
2022-08-07T07:10:38.935Z,1.20
2022-08-07T07:13:56.672Z,2.30
2022-08-07T07:16:45.427Z,1.20
2022-08-07T07:19:56.513Z,2.10
2022-08-07T07:22:40.011Z,2.10
2022-08-07T07:26:31.168Z,2.00
2022-08-07T07:28:03.066Z,1.60
2022-08-07T07:35:00.730Z,1.10
2022-08-07T07:37:49.501Z,0.40
2022-08-07T07:40:26.144Z,1.50
2022-08-07T07:42:57.544Z,0.80
2022-08-07T07:46:36.868Z,1.50
2022-08-07T07:48:35.412Z,1.40
2022-08-07T07:51:07.997Z,1.10
2022-08-07T07:53:52.631Z,1.20
2022-08-07T07:56:30.005Z,1.40
2022-08-07T07:59:05.927Z,1.10
2022-08-07T08:02:02.212Z,1.10
2022-08-07T08:04:32.498Z,0.80
2022-08-07T08:07:07.619Z,0.90
2022-08-07T08:09:52.586Z,1.10
2022-08-07T08:12:52.476Z,1.00
2022-08-07T08:15:17.567Z,0.70
2022-08-07T08:17:57.097Z,1.30
2022-08-07T08:20:32.348Z,0.80
2022-08-07T08:23:20.778Z,0.90
2022-08-07T08:26:18.805Z,0.80
2022-08-07T08:28:51.631Z,0.80
2022-08-07T08:32:16.751Z,0.90
2022-08-07T08:34:36.523Z,1.10
2022-08-07T08:37:09.965Z,2.60
2022-08-07T08:39:58.447Z,0.70
2022-08-07T08:42:59.010Z,0.60
2022-08-07T08:46:00.848Z,0.70
2022-08-07T08:48:41.918Z,0.70
2022-08-07T08:51:49.473Z,0.80
2022-08-07T08:54:25.590Z,0.90
2022-08-07T08:56:57.740Z,1.10
2022-08-07T08:59:42.154Z,0.70
2022-08-07T09:02:36.754Z,0.80
2022-08-07T09:05:48.672Z,0.90
2022-08-07T09:08:24.406Z,0.60
2022-08-07T09:11:08.258Z,1.00
2022-08-07T09:14:12.017Z,0.50
2022-08-07T09:16:58.185Z,0.40
2022-08-07T09:19:55.173Z,0.60
2022-08-07T09:24:33.016Z,0.40
2022-08-07T09:25:59.156Z,0.50
2022-08-07T09:30:05.650Z,0.70
2022-08-07T09:31:55.171Z,0.60
2022-08-07T09:34:29.839Z,1.00
2022-08-07T09:37:06.619Z,0.30
2022-08-07T09:40:06.596Z,0.80
2022-08-07T09:42:56.205Z,0.70
2022-08-07T09:47:55.665Z,0.40
2022-08-07T09:50:02.458Z,0.40
2022-08-07T09:52:51.777Z,0.40
2022-08-07T09:55:29.426Z,0.40
2022-08-07T09:58:26.214Z,0.40
2022-08-07T10:01:02.090Z,0.30
2022-08-07T10:04:14.425Z,0.50
2022-08-07T10:07:31.713Z,0.30
2022-08-07T10:10:21.272Z,0.20
2022-08-07T10:12:59.190Z,0.40
2022-08-07T10:15:44.537Z,0.30
2022-08-07T10:18:29.607Z,0.70
2022-08-07T10:21:50.392Z,0.50
2022-08-07T10:24:25.990Z,0.40
2022-08-07T10:27:13.341Z,0.40
2022-08-07T10:30:04.354Z,0.20
2022-08-07T10:33:09.232Z,0.30
2022-08-07T10:36:11.398Z,0.20
2022-08-07T10:38:51.139Z,0.30
2022-08-07T10:41:52.893Z,0.40
2022-08-07T10:44:37.806Z,0.40
2022-08-07T10:47:27.215Z,0.40
2022-08-07T10:50:15.037Z,0.30
2022-08-07T10:53:08.929Z,0.50
2022-08-07T10:55:57.464Z,0.30
2022-08-07T10:58:59.608Z,0.30
2022-08-07T11:01:35.141Z,0.40
2022-08-07T11:04:23.334Z,0.30
2022-08-07T11:07:56.926Z,0.30
2022-08-07T11:10:17.763Z,0.20
2022-08-07T11:13:03.068Z,0.40
2022-08-07T11:15:36.199Z,0.30
2022-08-07T11:18:35.631Z,0.30
2022-08-07T11:21:15.656Z,0.50
2022-08-07T11:24:04.602Z,0.50
2022-08-07T11:26:50.032Z,0.40
2022-08-07T11:29:41.745Z,0.20
2022-08-07T11:34:58.908Z,0.30
2022-08-07T11:37:57.952Z,0.30
2022-08-07T11:40:59.735Z,0.30
2022-08-07T11:43:54.327Z,0.30
2022-08-07T11:46:28.098Z,0.40
2022-08-07T11:50:25.223Z,0.30
2022-08-07T11:52:42.187Z,0.20
2022-08-07T11:56:25.568Z,0.50
2022-08-07T11:58:40.962Z,0.20
2022-08-07T12:01:22.177Z,0.50
2022-08-07T12:04:03.874Z,0.40
2022-08-07T12:06:51.590Z,0.30
2022-08-07T12:09:48.997Z,0.60
2022-08-07T12:12:46.896Z,0.40
2022-08-07T12:15:35.881Z,0.30
2022-08-07T12:18:29.903Z,0.30
2022-08-07T12:22:36.211Z,0.40
2022-08-07T12:25:07.771Z,0.40
2022-08-07T12:28:08.979Z,0.30
2022-08-07T12:30:46.694Z,0.10
2022-08-07T12:33:28.470Z,0.20
2022-08-07T12:36:02.294Z,0.40
2022-08-07T12:38:42.927Z,0.30
2022-08-07T12:41:18.428Z,0.40
2022-08-07T12:44:03.525Z,0.40
2022-08-07T12:46:37.290Z,0.30
2022-08-07T12:49:40.112Z,0.40
2022-08-07T12:52:17.904Z,0.40
2022-08-07T12:55:05.165Z,0.20
2022-08-07T12:58:00.461Z,0.50
2022-08-07T13:00:52.533Z,0.40
2022-08-07T13:04:00.559Z,0.30
2022-08-07T13:07:03.159Z,0.60
2022-08-07T13:10:28.361Z,0.30
2022-08-07T13:12:52.371Z,0.50
2022-08-07T13:15:35.150Z,0.40
2022-08-07T13:18:26.471Z,0.30
2022-08-07T13:21:37.146Z,0.50
2022-08-07T13:27:06.713Z,0.40
2022-08-07T13:29:47.837Z,0.40
2022-08-07T13:32:32.611Z,0.20
2022-08-07T13:35:16.082Z,0.40
2022-08-07T13:38:00.919Z,0.30
2022-08-07T13:40:42.488Z,0.30
2022-08-07T13:43:16.194Z,0.40
2022-08-07T13:46:11.893Z,0.60
2022-08-07T13:48:39.043Z,0.70
2022-08-07T13:51:26.995Z,0.60
2022-08-07T13:54:03.502Z,0.50
2022-08-07T13:56:36.149Z,0.30
2022-08-07T13:59:20.070Z,0.40
2022-08-07T14:02:08.147Z,0.30
2022-08-07T14:05:02.147Z,0.40
2022-08-07T14:08:00.628Z,0.90
2022-08-07T14:10:42.376Z,0.50
2022-08-07T14:13:18.146Z,0.40
2022-08-07T14:15:54.463Z,0.40
2022-08-07T14:18:33.216Z,0.60
2022-08-07T14:22:00.921Z,0.60
2022-08-07T14:24:14.172Z,0.50
2022-08-07T14:26:52.223Z,0.70
2022-08-07T14:30:09.434Z,0.40
2022-08-07T14:32:15.082Z,0.30
2022-08-07T14:34:47.295Z,0.50
2022-08-07T14:40:16.470Z,0.40
2022-08-07T14:43:01.424Z,1.40
2022-08-07T14:45:46.590Z,0.70
2022-08-07T14:48:22.233Z,0.40
2022-08-07T14:51:00.464Z,0.30
2022-08-07T14:54:08.824Z,0.50
2022-08-07T14:56:29.580Z,0.50
2022-08-07T14:59:14.083Z,0.30
2022-08-07T15:05:01.768Z,0.50
2022-08-07T15:07:51.229Z,0.30
2022-08-07T15:10:26.545Z,0.50
2022-08-07T15:13:06.419Z,0.30
2022-08-07T15:15:52.202Z,0.20
2022-08-07T15:18:34.915Z,0.30
2022-08-07T15:21:44.288Z,2.90
2022-08-07T15:25:13.546Z,0.30
2022-08-07T15:27:11.262Z,0.40
2022-08-07T15:30:04.836Z,0.50
2022-08-07T15:32:40.026Z,0.70
2022-08-07T15:35:26.633Z,0.20
2022-08-07T15:44:15.256Z,0.80
2022-08-07T15:46:51.790Z,0.50
2022-08-07T15:50:03.733Z,0.40
2022-08-07T15:52:30.538Z,0.50
2022-08-07T15:55:03.912Z,0.50
2022-08-07T15:57:48.504Z,0.30
2022-08-07T16:00:31.216Z,0.50
2022-08-07T16:03:22.043Z,1.20
2022-08-07T16:06:06.663Z,0.40
2022-08-07T16:08:42.711Z,0.60
2022-08-07T16:11:31.470Z,0.50
2022-08-07T16:14:39.120Z,0.50
2022-08-07T16:18:02.553Z,1.50
2022-08-07T16:20:42.526Z,0.80
2022-08-07T16:23:53.458Z,2.30
2022-08-07T16:26:30.480Z,2.00
2022-08-07T16:30:11.033Z,1.10
2022-08-07T16:32:34.940Z,0.80
2022-08-07T16:35:52.403Z,1.00
2022-08-07T16:39:01.424Z,1.30
2022-08-07T16:41:55.836Z,1.00
2022-08-07T16:44:47.547Z,1.40
2022-08-07T16:47:49.651Z,0.90
2022-08-07T16:50:38.915Z,1.00
2022-08-07T16:54:02.567Z,0.80
2022-08-07T16:56:44.226Z,0.70
2022-08-07T16:59:20.647Z,0.50
2022-08-07T17:01:57.467Z,0.60
2022-08-07T17:04:50.993Z,0.70
2022-08-07T17:07:57.920Z,0.70
2022-08-07T17:10:54.220Z,1.00
2022-08-07T17:14:18.340Z,0.50
2022-08-07T17:16:55.850Z,0.70
2022-08-07T17:20:01.896Z,0.50
2022-08-07T17:22:46.471Z,0.70
2022-08-07T17:25:47.485Z,0.40
2022-08-07T17:28:25.405Z,0.40
2022-08-07T17:31:16.465Z,0.60
2022-08-07T17:34:32.702Z,5.00
2022-08-07T17:36:48.984Z,0.60
2022-08-07T17:39:57.883Z,0.70
2022-08-07T17:42:59.472Z,0.50
2022-08-07T17:45:37.201Z,0.70
2022-08-07T17:48:16.838Z,1.10
2022-08-07T17:54:39.570Z,0.70
2022-08-07T17:57:24.031Z,0.70
2022-08-07T18:00:14.254Z,1.00
2022-08-07T18:03:18.168Z,1.00
2022-08-07T18:06:03.726Z,0.60
2022-08-07T18:09:00.647Z,0.50
2022-08-07T18:12:18.116Z,0.50
2022-08-07T18:14:46.113Z,0.30
2022-08-07T18:18:33.045Z,0.40
2022-08-07T18:21:08.044Z,0.40
2022-08-07T18:24:33.163Z,0.60
2022-08-07T18:27:20.908Z,0.40
2022-08-07T18:30:06.736Z,0.50
2022-08-07T18:32:56.195Z,0.30
2022-08-07T18:35:57.223Z,0.20
2022-08-07T18:40:06.589Z,0.30
2022-08-07T18:42:16.726Z,0.20
2022-08-07T18:45:43.596Z,0.70
2022-08-07T18:48:04.924Z,0.30
2022-08-07T18:51:14.906Z,0.40
2022-08-07T18:53:55.465Z,0.70
2022-08-07T18:56:37.645Z,0.70
2022-08-07T18:59:46.821Z,0.80
2022-08-07T19:02:34.454Z,0.50
2022-08-07T19:05:24.738Z,0.50
2022-08-07T19:08:10.811Z,0.50
2022-08-07T19:10:59.319Z,1.30
2022-08-07T19:13:49.977Z,0.80
2022-08-07T19:17:00.747Z,0.60
2022-08-07T19:19:36.253Z,1.50
2022-08-07T19:31:05.816Z,1.40
2022-08-07T19:32:28.968Z,1.20
2022-08-07T19:35:11.076Z,2.10
2022-08-07T19:37:55.268Z,1.60
2022-08-07T19:40:30.902Z,0.80
2022-08-07T19:43:11.015Z,0.90
2022-08-07T19:46:05.357Z,1.00
2022-08-07T19:48:54.566Z,0.60
2022-08-07T19:51:53.126Z,0.60
2022-08-07T19:54:30.888Z,0.80
2022-08-07T19:58:01.761Z,0.70
2022-08-07T20:00:08.923Z,0.90
2022-08-07T20:02:52.121Z,0.60
2022-08-07T20:05:28.137Z,0.60
2022-08-07T20:08:03.907Z,0.70
2022-08-07T20:10:52.154Z,1.00
2022-08-07T20:13:34.337Z,1.20
2022-08-07T20:16:04.677Z,0.70
2022-08-07T20:18:34.494Z,0.50
2022-08-07T20:21:21.045Z,0.40
2022-08-07T20:24:07.411Z,0.70
2022-08-07T20:26:45.870Z,0.60
2022-08-07T20:29:47.109Z,1.10
2022-08-07T20:32:22.889Z,0.50
2022-08-07T20:35:25.258Z,0.60
2022-08-07T20:37:58.852Z,0.50
2022-08-07T20:40:32.298Z,0.50
2022-08-07T20:43:14.918Z,0.60
2022-08-07T20:46:29.014Z,1.40
2022-08-07T20:49:53.868Z,0.50
2022-08-07T20:51:35.937Z,1.00
2022-08-07T20:54:12.227Z,0.40
2022-08-07T20:56:51.676Z,0.70
2022-08-07T21:00:05.245Z,0.30
2022-08-07T21:02:38.370Z,0.90
2022-08-07T21:05:16.350Z,0.80
2022-08-07T21:07:50.301Z,0.70
2022-08-07T21:10:29.448Z,1.00
2022-08-07T21:13:03.518Z,0.60
2022-08-07T21:15:58.434Z,0.70
2022-08-07T21:18:33.518Z,0.60
2022-08-07T21:21:05.284Z,0.40
2022-08-07T21:24:12.362Z,0.70
2022-08-07T21:27:09.851Z,1.00
2022-08-07T21:29:53.067Z,0.60
2022-08-07T21:32:47.866Z,0.50
2022-08-07T21:35:34.557Z,0.60
2022-08-07T21:38:31.056Z,0.60
2022-08-07T21:41:24.526Z,0.50
2022-08-07T21:44:08.209Z,0.70
2022-08-07T21:46:55.563Z,0.70
2022-08-07T21:49:40.625Z,0.60
2022-08-07T21:52:58.324Z,0.60
2022-08-07T21:55:48.441Z,0.70
2022-08-07T21:58:52.227Z,0.90
2022-08-07T22:02:07.188Z,0.70
2022-08-07T22:04:25.620Z,0.50
2022-08-07T22:07:02.084Z,0.80
2022-08-07T22:09:38.054Z,0.70
2022-08-07T22:12:31.527Z,0.50
2022-08-07T22:16:42.456Z,0.50
2022-08-07T22:18:02.263Z,0.80
2022-08-07T22:20:39.921Z,1.10
2022-08-07T22:23:29.241Z,0.90
2022-08-07T22:26:06.142Z,0.60
2022-08-07T22:28:53.918Z,0.90
2022-08-07T22:32:06.018Z,1.40
2022-08-07T22:34:49.717Z,0.50
2022-08-07T22:37:28.135Z,0.60
2022-08-07T22:40:27.732Z,0.40
2022-08-07T22:43:19.357Z,0.60
2022-08-07T22:46:42.727Z,0.90
2022-08-07T22:49:33.975Z,0.80
2022-08-07T22:52:37.143Z,0.60
2022-08-07T22:55:38.928Z,1.70
2022-08-07T22:58:22.170Z,0.70
